Time;durP1;ratioP1;P1;durP2;ratioP2;P2;SDS_P1;SDS_P2;PMS_P1;PMS_P2;Temp;Humidity;BMP_temperature;BMP_pressure;BME280_temperature;BME280_humidity;BME280_pressure;Samples;Min_cycle;Max_cycle;Signal;HPM_P1;HPM_P2
2021/01/11 00:01:45;;;;;;;18.07;8.20;;;-2.50;99.90;;;;;;5061776;28;20848;-53
2021/01/11 00:04:13;;;;;;;14.43;7.27;;;-2.40;99.90;;;;;;5072112;28;20448;-53
2021/01/11 00:06:40;;;;;;;15.30;7.60;;;-2.30;99.90;;;;;;5070774;28;20452;-53
2021/01/11 00:09:09;;;;;;;18.83;8.77;;;-2.30;99.90;;;;;;5070156;28;20876;-53
2021/01/11 00:11:38;;;;;;;17.03;8.00;;;-2.30;99.90;;;;;;5068290;28;20979;-53
2021/01/11 00:14:07;;;;;;;19.33;8.87;;;-2.40;99.90;;;;;;5071953;28;20448;-53
2021/01/11 00:16:34;;;;;;;18.20;8.90;;;-2.60;99.90;;;;;;5068302;28;20479;-53
2021/01/11 00:19:00;;;;;;;15.37;7.90;;;-2.50;99.90;;;;;;5069946;28;20519;-53
2021/01/11 00:21:28;;;;;;;13.67;7.27;;;-2.50;99.90;;;;;;5070026;28;20467;-52
2021/01/11 00:23:54;;;;;;;16.30;8.13;;;-2.40;99.90;;;;;;5070859;28;20521;-52
2021/01/11 00:26:21;;;;;;;16.17;7.70;;;-2.40;99.90;;;;;;5071010;28;20458;-52
2021/01/11 00:28:48;;;;;;;18.30;8.30;;;-2.30;99.90;;;;;;5066957;28;20491;-52
2021/01/11 00:31:21;;;;;;;19.43;8.60;;;-2.30;99.90;;;;;;5069762;28;20522;-52
2021/01/11 00:33:48;;;;;;;16.10;8.30;;;-2.20;99.90;;;;;;5069309;28;20463;-52
2021/01/11 00:36:14;;;;;;;17.80;7.40;;;-2.30;99.90;;;;;;5070436;28;20516;-52
2021/01/11 00:38:41;;;;;;;14.03;6.90;;;-2.50;99.90;;;;;;5070056;28;20486;-52
2021/01/11 00:41:08;;;;;;;16.10;7.17;;;-2.50;99.90;;;;;;5070405;28;20470;-52
2021/01/11 00:43:35;;;;;;;18.10;7.97;;;-2.30;99.90;;;;;;5071282;28;20447;-52
2021/01/11 00:46:02;;;;;;;17.30;7.13;;;-2.30;99.90;;;;;;5069635;28;20459;-52
2021/01/11 00:48:28;;;;;;;16.30;7.43;;;-2.20;99.90;;;;;;5069572;28;20933;-52
2021/01/11 00:50:55;;;;;;;17.17;6.97;;;-2.20;99.90;;;;;;5070740;28;20452;-52
2021/01/11 00:53:21;;;;;;;16.23;8.03;;;-2.20;99.90;;;;;;5070476;28;20472;-52
2021/01/11 00:55:48;;;;;;;15.00;7.50;;;-2.20;99.90;;;;;;5063500;28;20479;-53
2021/01/11 00:58:14;;;;;;;15.50;8.10;;;-2.20;99.90;;;;;;5070032;28;20862;-52
2021/01/11 01:00:42;;;;;;;16.93;7.93;;;-2.10;99.90;;;;;;5070652;28;20456;-52
2021/01/11 01:03:08;;;;;;;14.37;7.10;;;-2.10;99.90;;;;;;5069896;28;21021;-52
2021/01/11 01:05:35;;;;;;;14.70;7.57;;;-2.10;99.90;;;;;;5070906;28;20451;-52
2021/01/11 01:08:01;;;;;;;16.50;7.67;;;-2.10;99.90;;;;;;5070078;28;20467;-52
2021/01/11 01:10:28;;;;;;;14.77;6.80;;;-2.20;99.90;;;;;;5070318;28;20444;-52
2021/01/11 01:12:54;;;;;;;14.40;7.23;;;-2.20;99.90;;;;;;5069313;28;20467;-53
2021/01/11 01:15:21;;;;;;;13.07;7.17;;;-2.30;99.90;;;;;;5070608;28;20455;-53
2021/01/11 01:17:49;;;;;;;15.63;7.23;;;-2.30;99.90;;;;;;5069622;28;20492;-53
2021/01/11 01:20:16;;;;;;;13.13;6.67;;;-2.30;99.90;;;;;;5069493;28;20496;-53
2021/01/11 01:22:45;;;;;;;13.73;6.77;;;-2.30;99.90;;;;;;5069422;28;20849;-53
2021/01/11 01:25:12;;;;;;;12.70;7.40;;;-2.30;99.90;;;;;;5070079;28;20557;-53
2021/01/11 01:27:39;;;;;;;14.43;7.00;;;-2.30;99.90;;;;;;5070774;28;20489;-52
2021/01/11 01:30:08;;;;;;;15.50;6.67;;;-2.30;99.90;;;;;;5069501;28;20525;-52
2021/01/11 01:32:35;;;;;;;16.87;7.27;;;-2.30;99.90;;;;;;5069533;28;21111;-52
2021/01/11 01:35:03;;;;;;;17.03;7.17;;;-2.30;99.90;;;;;;5069293;28;20455;-52
2021/01/11 01:37:30;;;;;;;13.83;6.80;;;-2.30;99.90;;;;;;5069757;28;20483;-52
2021/01/11 01:39:56;;;;;;;13.30;6.80;;;-2.40;99.90;;;;;;5069287;28;20466;-52
2021/01/11 01:42:23;;;;;;;12.43;5.90;;;-2.60;99.90;;;;;;5070523;28;20447;-52
2021/01/11 01:44:49;;;;;;;12.47;6.70;;;-2.60;99.90;;;;;;5069643;28;20540;-52
2021/01/11 01:47:16;;;;;;;16.13;7.97;;;-2.50;99.90;;;;;;5067271;28;20459;-52
2021/01/11 01:49:43;;;;;;;16.20;7.40;;;-2.50;99.90;;;;;;5066942;28;21034;-52
2021/01/11 01:52:11;;;;;;;14.87;7.60;;;-2.80;99.90;;;;;;5069949;28;20878;-52
2021/01/11 01:54:40;;;;;;;17.43;8.10;;;-2.90;99.90;;;;;;5065169;28;20459;-51
2021/01/11 01:57:08;;;;;;;19.27;8.07;;;-2.90;99.90;;;;;;5068094;28;20535;-52
2021/01/11 01:59:34;;;;;;;17.37;8.20;;;-3.00;99.90;;;;;;5069240;28;20490;-54
2021/01/11 02:02:01;;;;;;;17.73;7.83;;;-2.90;99.90;;;;;;5069358;28;20461;-52
2021/01/11 02:04:28;;;;;;;17.60;8.60;;;-2.90;99.90;;;;;;5067157;28;20463;-52
2021/01/11 02:06:58;;;;;;;22.70;8.70;;;-3.10;99.90;;;;;;5069883;28;20960;-52
2021/01/11 02:09:39;;;;;;;18.40;8.07;;;-3.00;99.90;;;;;;5069971;28;20467;-52
2021/01/11 02:12:14;;;;;;;18.03;7.93;;;-2.90;99.90;;;;;;5069584;28;20525;-52
2021/01/11 02:14:51;;;;;;;18.17;8.30;;;-2.90;99.90;;;;;;5069635;28;20462;-52
2021/01/11 02:17:25;;;;;;;15.90;7.90;;;-2.90;99.90;;;;;;5070377;28;20577;-52
2021/01/11 02:20:25;;;;;;;16.97;7.83;;;-3.00;99.90;;;;;;5067530;28;20611;-53
2021/01/11 02:23:06;;;;;;;18.63;7.23;;;-3.30;99.90;;;;;;5068891;28;20458;-53
2021/01/11 02:25:40;;;;;;;18.00;8.07;;;-3.30;99.90;;;;;;5050107;28;20972;-53
2021/01/11 02:28:24;;;;;;;18.13;9.10;;;-3.20;99.90;;;;;;5068538;28;20526;-52
2021/01/11 02:30:54;;;;;;;15.50;7.70;;;-3.30;99.90;;;;;;5073659;28;20534;-53
2021/01/11 02:33:21;;;;;;;17.57;8.67;;;-3.30;99.90;;;;;;5070283;28;20459;-52
2021/01/11 02:36:05;;;;;;;14.73;8.07;;;-3.40;99.90;;;;;;5061418;28;20489;-52
2021/01/11 02:38:33;;;;;;;15.10;8.23;;;-3.50;99.90;;;;;;5070157;28;20491;-52
2021/01/11 02:41:00;;;;;;;19.13;8.90;;;-3.40;99.90;;;;;;5073495;28;20447;-52
2021/01/11 02:43:27;;;;;;;14.80;8.20;;;-3.40;99.90;;;;;;5073042;28;20850;-52
2021/01/11 02:45:54;;;;;;;18.00;8.67;;;-3.60;99.90;;;;;;5073705;28;20940;-52
2021/01/11 02:48:27;;;;;;;23.50;10.10;;;-3.70;99.90;;;;;;5072096;28;20519;-52
2021/01/11 02:51:07;;;;;;;25.20;9.53;;;-3.80;99.90;;;;;;5070746;28;20471;-52
2021/01/11 02:53:46;;;;;;;19.53;9.73;;;-3.80;99.90;;;;;;5073807;28;20515;-52
2021/01/11 02:56:19;;;;;;;16.60;8.30;;;-3.90;99.90;;;;;;5072561;28;20485;-52
2021/01/11 02:59:03;;;;;;;24.37;9.07;;;-3.80;99.90;;;;;;5061611;28;20486;-52
2021/01/11 03:01:39;;;;;;;20.20;8.53;;;-3.70;99.90;;;;;;5073565;28;20499;-52
2021/01/11 03:06:32;;;;;;;18.43;8.30;;;-3.90;99.90;;;;;;5088890;22;20526;-55
2021/01/11 03:09:04;;;;;;;16.17;7.70;;;-3.90;99.90;;;;;;5072614;28;20208;-55
2021/01/11 03:11:33;;;;;;;16.63;8.10;;;-3.80;99.90;;;;;;5073179;28;20457;-55
2021/01/11 03:14:00;;;;;;;15.80;7.57;;;-3.90;99.90;;;;;;5072994;28;20438;-55
2021/01/11 03:16:26;;;;;;;17.80;8.23;;;-4.00;99.90;;;;;;5072982;28;20547;-55
2021/01/11 03:18:53;;;;;;;19.90;8.93;;;-4.00;99.90;;;;;;5071395;28;20463;-55
2021/01/11 03:21:20;;;;;;;18.93;8.10;;;-4.10;99.90;;;;;;5080624;28;20461;-55
2021/01/11 03:23:46;;;;;;;15.83;7.50;;;-4.20;99.90;;;;;;5080697;28;20462;-55
2021/01/11 03:26:20;;;;;;;18.27;7.73;;;-4.20;99.90;;;;;;5072853;28;20810;-55
2021/01/11 03:28:47;;;;;;;16.00;7.73;;;-4.00;99.90;;;;;;5079629;28;20466;-55
2021/01/11 03:31:14;;;;;;;16.33;8.07;;;-4.10;99.90;;;;;;5079254;28;20446;-55
2021/01/11 03:33:40;;;;;;;15.27;7.47;;;-4.20;99.90;;;;;;5084477;28;20458;-55
2021/01/11 03:36:08;;;;;;;13.40;6.83;;;-4.20;99.90;;;;;;5092919;28;20488;-56
2021/01/11 03:38:34;;;;;;;12.53;6.80;;;-4.30;99.90;;;;;;5086757;28;20538;-56
2021/01/11 03:41:02;;;;;;;16.60;7.37;;;-4.20;99.90;;;;;;5080544;28;20458;-56
2021/01/11 03:43:28;;;;;;;15.60;7.30;;;-4.30;99.90;;;;;;5080159;28;20470;-55
2021/01/11 03:45:55;;;;;;;19.70;8.90;;;-4.40;99.90;;;;;;5072375;28;20470;-55
2021/01/11 03:48:21;;;;;;;17.33;8.07;;;-4.50;99.90;;;;;;5072777;28;20464;-55
2021/01/11 03:50:48;;;;;;;17.70;7.87;;;-4.50;99.90;;;;;;5079741;28;20534;-55
2021/01/11 03:53:15;;;;;;;17.23;7.50;;;-4.50;99.90;;;;;;5079510;28;20528;-55
2021/01/11 03:55:42;;;;;;;18.90;7.30;;;-4.60;99.90;;;;;;5072485;28;20533;-55
2021/01/11 03:58:08;;;;;;;19.50;8.07;;;-4.70;99.90;;;;;;5082250;28;20464;-55
2021/01/11 04:00:35;;;;;;;15.10;7.50;;;-4.80;99.90;;;;;;5073858;28;20458;-55
2021/01/11 04:03:02;;;;;;;19.60;7.20;;;-4.80;99.90;;;;;;5081539;28;20565;-55
2021/01/11 04:05:29;;;;;;;14.70;7.00;;;-4.90;99.90;;;;;;5072705;28;20485;-55
2021/01/11 04:07:55;;;;;;;14.20;6.67;;;-4.90;99.90;;;;;;5071070;28;20463;-55
2021/01/11 04:10:23;;;;;;;13.33;6.40;;;-5.00;99.90;;;;;;5071510;28;20466;-55
2021/01/11 04:12:49;;;;;;;20.93;7.40;;;-5.00;99.90;;;;;;5072300;28;20450;-55
2021/01/11 04:15:16;;;;;;;16.30;7.70;;;-5.00;99.90;;;;;;5076727;28;20947;-55
2021/01/11 04:17:43;;;;;;;19.33;8.87;;;-5.00;99.90;;;;;;5087828;28;20485;-55
2021/01/11 04:20:10;;;;;;;16.83;7.27;;;-4.80;99.90;;;;;;5086581;28;20508;-55
2021/01/11 04:22:36;;;;;;;18.43;8.70;;;-4.80;99.90;;;;;;5071769;28;20457;-55
2021/01/11 04:25:03;;;;;;;18.50;7.70;;;-4.80;99.90;;;;;;5070632;28;20898;-55
2021/01/11 04:27:30;;;;;;;13.80;7.30;;;-4.90;99.90;;;;;;5070110;28;20459;-55
2021/01/11 04:29:57;;;;;;;20.17;7.90;;;-4.90;99.90;;;;;;5071457;28;20450;-55
2021/01/11 04:32:23;;;;;;;18.70;7.33;;;-4.90;99.90;;;;;;5086279;28;20511;-55
2021/01/11 04:34:50;;;;;;;15.97;7.40;;;-4.90;99.90;;;;;;5091667;28;20468;-55
2021/01/11 04:37:16;;;;;;;19.77;7.93;;;-4.90;99.90;;;;;;5083645;28;20491;-55
2021/01/11 04:39:43;;;;;;;19.63;8.53;;;-4.90;99.90;;;;;;5091199;28;20466;-55
2021/01/11 04:42:12;;;;;;;19.50;7.93;;;-5.10;99.90;;;;;;5077437;28;20527;-55
2021/01/11 04:44:39;;;;;;;19.70;7.67;;;-5.10;99.90;;;;;;5089515;28;20657;-55
2021/01/11 04:47:06;;;;;;;21.17;7.97;;;-5.10;99.90;;;;;;5087230;28;20465;-55
2021/01/11 04:49:33;;;;;;;16.23;7.60;;;-5.00;99.90;;;;;;5078737;28;20993;-55
2021/01/11 04:52:00;;;;;;;25.50;8.33;;;-5.00;99.90;;;;;;5071124;28;20455;-55
2021/01/11 04:54:31;;;;;;;18.07;7.53;;;-4.90;99.90;;;;;;5087234;28;21017;-55
2021/01/11 04:57:02;;;;;;;13.20;7.20;;;-4.90;99.90;;;;;;5079719;28;20488;-55
2021/01/11 04:59:33;;;;;;;14.90;7.00;;;-5.00;99.90;;;;;;5089030;28;20467;-55
2021/01/11 05:02:01;;;;;;;15.53;7.93;;;-5.20;99.90;;;;;;5069046;28;20465;-55
2021/01/11 05:04:28;;;;;;;20.20;8.50;;;-5.10;99.90;;;;;;5069463;28;20539;-55
2021/01/11 05:07:02;;;;;;;18.13;8.00;;;-5.10;99.90;;;;;;5071121;28;20465;-55
2021/01/11 05:09:29;;;;;;;26.93;10.80;;;-5.00;99.90;;;;;;5085218;28;20544;-54
2021/01/11 05:11:56;;;;;;;16.37;9.50;;;-5.10;99.90;;;;;;5088277;28;20465;-55
2021/01/11 05:14:23;;;;;;;25.57;10.17;;;-5.10;99.90;;;;;;5090986;28;20938;-55
2021/01/11 05:17:06;;;;;;;24.33;8.87;;;-5.20;99.90;;;;;;5068201;28;20490;-54
2021/01/11 05:19:33;;;;;;;25.30;9.50;;;-5.10;99.90;;;;;;5077993;28;20466;-54
2021/01/11 05:22:00;;;;;;;21.63;8.27;;;-5.20;99.90;;;;;;5074964;28;20965;-55
2021/01/11 05:24:31;;;;;;;21.53;8.27;;;-5.30;99.90;;;;;;5074657;28;20484;-54
2021/01/11 05:26:59;;;;;;;19.67;8.63;;;-5.30;99.90;;;;;;5073034;28;20454;-54
2021/01/11 05:29:26;;;;;;;21.37;8.63;;;-5.20;99.90;;;;;;5073406;28;20453;-55
2021/01/11 05:31:54;;;;;;;19.20;9.37;;;-5.30;99.90;;;;;;5071799;28;20468;-55
2021/01/11 05:34:23;;;;;;;22.80;9.40;;;-5.20;99.90;;;;;;5074909;28;21440;-54
2021/01/11 05:36:50;;;;;;;22.67;9.57;;;-5.40;99.90;;;;;;5071496;28;20491;-54
2021/01/11 05:39:17;;;;;;;19.17;9.43;;;-5.60;99.90;;;;;;5070715;28;20470;-54
2021/01/11 05:41:44;;;;;;;18.73;8.70;;;-5.60;99.90;;;;;;5072334;28;20970;-54
2021/01/11 05:44:12;;;;;;;21.97;8.93;;;-5.50;99.90;;;;;;5073312;28;20475;-54
2021/01/11 05:46:40;;;;;;;18.17;8.67;;;-5.60;99.90;;;;;;5070051;28;20457;-54
2021/01/11 05:49:11;;;;;;;20.20;8.33;;;-5.70;99.90;;;;;;5068904;28;20466;-54
2021/01/11 05:51:39;;;;;;;19.20;8.80;;;-5.70;99.90;;;;;;5075302;28;20472;-54
2021/01/11 05:54:23;;;;;;;17.10;8.57;;;-5.70;99.90;;;;;;5074001;28;20460;-54
2021/01/11 05:56:54;;;;;;;19.13;7.50;;;-5.60;99.90;;;;;;5071024;28;21037;-54
2021/01/11 05:59:21;;;;;;;19.73;8.47;;;-5.70;99.90;;;;;;5073013;28;20464;-54
2021/01/11 06:01:48;;;;;;;16.70;8.10;;;-5.60;99.90;;;;;;5072222;28;20507;-54
2021/01/11 06:04:14;;;;;;;19.03;8.63;;;-5.70;99.90;;;;;;5077879;28;20468;-53
2021/01/11 06:06:42;;;;;;;20.13;9.17;;;-5.80;99.90;;;;;;5074335;28;20488;-53
2021/01/11 06:09:09;;;;;;;22.87;9.47;;;-5.90;99.90;;;;;;5084145;28;20472;-53
2021/01/11 06:11:37;;;;;;;20.13;8.43;;;-5.90;99.90;;;;;;5077331;28;20455;-54
2021/01/11 06:14:07;;;;;;;18.63;8.20;;;-5.90;99.90;;;;;;5080301;28;20467;-53
2021/01/11 06:16:35;;;;;;;18.80;8.70;;;-6.00;99.90;;;;;;5077254;28;20527;-53
2021/01/11 06:19:04;;;;;;;21.53;9.40;;;-6.20;99.90;;;;;;5073211;28;20488;-54
2021/01/11 06:21:30;;;;;;;17.90;8.60;;;-6.30;99.90;;;;;;5077673;28;20838;-54
2021/01/11 06:24:16;;;;;;;21.80;8.50;;;-6.30;99.90;;;;;;5079013;28;20474;-53
2021/01/11 06:26:43;;;;;;;18.87;8.50;;;-6.30;99.90;;;;;;5078913;28;20483;-54
2021/01/11 06:29:30;;;;;;;21.50;8.47;;;-6.30;99.90;;;;;;5072243;28;20524;-53
2021/01/11 06:31:58;;;;;;;20.43;8.73;;;-6.00;99.90;;;;;;5076793;28;20549;-54
2021/01/11 06:34:35;;;;;;;20.10;9.60;;;-5.90;99.90;;;;;;5078794;28;20887;-54
2021/01/11 06:37:03;;;;;;;20.50;8.27;;;-5.90;99.90;;;;;;5074209;28;20492;-54
2021/01/11 06:39:33;;;;;;;20.30;8.70;;;-5.80;99.90;;;;;;5074439;28;20524;-54
2021/01/11 06:42:10;;;;;;;16.43;7.97;;;-5.80;99.90;;;;;;5078405;28;20465;-54
2021/01/11 06:44:39;;;;;;;20.47;8.87;;;-5.90;99.90;;;;;;5075651;28;20484;-54
2021/01/11 06:47:08;;;;;;;18.77;10.20;;;-5.90;99.90;;;;;;5075846;28;20965;-54
2021/01/11 06:49:36;;;;;;;21.50;9.20;;;-6.00;99.90;;;;;;5071875;28;20465;-53
2021/01/11 06:52:08;;;;;;;22.33;10.20;;;-6.00;99.90;;;;;;5072189;28;20483;-55
2021/01/11 06:54:43;;;;;;;22.17;9.93;;;-5.90;99.90;;;;;;5071763;28;20473;-54
2021/01/11 06:57:13;;;;;;;23.00;9.73;;;-5.90;99.90;;;;;;5073374;28;20573;-55
2021/01/11 06:59:40;;;;;;;24.33;9.47;;;-5.80;99.90;;;;;;5071891;28;20449;-54
2021/01/11 07:02:21;;;;;;;24.73;8.97;;;-5.80;99.90;;;;;;5073286;28;20943;-54
2021/01/11 07:04:48;;;;;;;20.83;9.30;;;-5.80;99.90;;;;;;5072877;28;20485;-54
2021/01/11 07:07:23;;;;;;;25.80;10.50;;;-5.80;99.90;;;;;;5072852;28;21001;-55
2021/01/11 07:09:58;;;;;;;24.70;9.90;;;-6.00;99.90;;;;;;5069407;28;20457;-54
2021/01/11 07:12:25;;;;;;;23.30;9.30;;;-6.20;99.90;;;;;;5073054;28;20449;-55
2021/01/11 07:14:59;;;;;;;24.53;10.03;;;-6.20;99.90;;;;;;5069878;28;20605;-55
2021/01/11 07:17:34;;;;;;;29.77;13.00;;;-6.00;99.90;;;;;;5070868;28;20481;-55
2021/01/11 07:20:01;;;;;;;37.97;14.63;;;-5.90;99.90;;;;;;5054632;28;20500;-54
2021/01/11 07:22:28;;;;;;;30.13;13.93;;;-5.90;99.90;;;;;;5072065;28;20463;-55
2021/01/11 07:24:54;;;;;;;35.63;13.07;;;-6.10;99.90;;;;;;5071025;28;20478;-55
2021/01/11 07:27:22;;;;;;;27.23;11.90;;;-6.00;99.90;;;;;;5071442;28;20446;-55
2021/01/11 07:29:48;;;;;;;29.03;12.17;;;-6.00;99.90;;;;;;5072349;28;20507;-55
2021/01/11 07:32:15;;;;;;;29.30;12.40;;;-5.90;99.90;;;;;;5072451;28;20455;-55
2021/01/11 07:34:41;;;;;;;29.33;12.60;;;-5.80;99.90;;;;;;5071715;28;20854;-55
2021/01/11 07:37:14;;;;;;;28.53;11.60;;;-5.80;99.90;;;;;;5072027;28;20483;-55
2021/01/11 07:39:41;;;;;;;23.50;10.57;;;-5.80;99.90;;;;;;5072029;28;20540;-55
2021/01/11 07:42:08;;;;;;;20.77;9.40;;;-5.70;99.90;;;;;;5072302;28;20457;-55
2021/01/11 07:44:36;;;;;;;23.23;10.00;;;-5.80;99.90;;;;;;5071081;28;20489;-55
2021/01/11 07:47:05;;;;;;;19.40;9.40;;;-5.80;99.90;;;;;;5072054;28;20517;-55
2021/01/11 07:49:35;;;;;;;20.63;10.00;;;-5.80;99.90;;;;;;5071678;28;20449;-54
2021/01/11 07:52:04;;;;;;;24.40;10.47;;;-5.90;99.90;;;;;;5071954;28;20948;-55
2021/01/11 07:54:31;;;;;;;22.00;10.07;;;-5.90;99.90;;;;;;5070064;28;20462;-55
2021/01/11 07:56:58;;;;;;;26.80;10.70;;;-5.90;99.90;;;;;;5069365;28;20837;-55
2021/01/11 07:59:24;;;;;;;28.13;10.63;;;-5.80;99.90;;;;;;5071523;28;20454;-55
2021/01/11 08:01:52;;;;;;;23.33;10.13;;;-5.60;99.90;;;;;;5062116;28;20902;-54
2021/01/11 08:04:19;;;;;;;22.50;10.37;;;-5.50;99.90;;;;;;5071434;28;20455;-55
2021/01/11 08:06:54;;;;;;;27.83;10.63;;;-5.40;99.90;;;;;;5071412;28;20443;-55
2021/01/11 08:09:22;;;;;;;26.67;10.43;;;-5.20;99.90;;;;;;5067764;28;20446;-55
2021/01/11 08:11:49;;;;;;;24.13;11.07;;;-5.20;99.90;;;;;;5071352;28;20455;-55
2021/01/11 08:14:16;;;;;;;27.63;10.20;;;-5.20;99.90;;;;;;5071188;28;20450;-56
2021/01/11 08:16:48;;;;;;;25.43;11.97;;;-5.20;99.90;;;;;;5071016;28;20494;-54
2021/01/11 08:19:16;;;;;;;23.10;10.13;;;-5.10;99.90;;;;;;5071013;28;21081;-54
2021/01/11 08:21:42;;;;;;;22.70;8.00;;;-5.00;99.90;;;;;;5071111;28;20454;-55
2021/01/11 08:24:11;;;;;;;18.73;8.03;;;-4.90;99.90;;;;;;5071432;28;20458;-55
2021/01/11 08:26:45;;;;;;;18.13;8.30;;;-4.90;99.90;;;;;;5071866;28;20449;-56
2021/01/11 08:29:15;;;;;;;23.40;8.20;;;-4.90;99.90;;;;;;5072355;28;20445;-55
2021/01/11 08:31:44;;;;;;;22.30;7.83;;;-4.60;99.90;;;;;;5072935;28;20469;-55
2021/01/11 08:34:11;;;;;;;20.03;8.57;;;-4.40;99.90;;;;;;5072802;28;20863;-55
2021/01/11 08:36:38;;;;;;;16.07;7.20;;;-4.40;99.90;;;;;;5072434;28;20490;-55
2021/01/11 08:39:13;;;;;;;16.80;7.20;;;-4.40;99.90;;;;;;5072591;28;20461;-55
2021/01/11 08:41:43;;;;;;;16.33;7.70;;;-4.20;99.90;;;;;;5073047;28;20967;-55
2021/01/11 08:44:27;;;;;;;14.57;7.50;;;-3.80;99.90;;;;;;5073130;28;20498;-54
2021/01/11 08:46:56;;;;;;;16.53;8.40;;;-3.60;99.90;;;;;;5070626;28;20447;-56
2021/01/11 08:49:23;;;;;;;19.23;8.33;;;-3.50;99.90;;;;;;5075807;28;20450;-55
2021/01/11 08:51:50;;;;;;;15.43;7.43;;;-3.40;99.90;;;;;;5083915;28;20439;-55
2021/01/11 08:54:27;;;;;;;15.70;7.63;;;-3.10;99.90;;;;;;5093333;28;20438;-55
2021/01/11 08:56:56;;;;;;;21.57;8.90;;;-2.60;99.90;;;;;;5093953;28;20545;-55
2021/01/11 08:59:23;;;;;;;17.63;7.60;;;-2.60;99.90;;;;;;5093995;28;20447;-55
2021/01/11 09:01:50;;;;;;;17.13;8.80;;;-2.30;99.90;;;;;;5093551;28;20451;-55
2021/01/11 09:04:31;;;;;;;16.50;7.50;;;-1.90;99.90;;;;;;5093586;28;20447;-55
2021/01/11 09:07:05;;;;;;;23.43;8.73;;;-1.90;99.90;;;;;;5093544;28;20439;-56
2021/01/11 09:09:33;;;;;;;19.33;8.23;;;-2.00;99.90;;;;;;5093818;28;20482;-55
2021/01/11 09:12:02;;;;;;;18.10;8.03;;;-2.40;99.90;;;;;;5113418;22;20894;-52
2021/01/11 09:14:31;;;;;;;15.33;7.97;;;-2.50;99.90;;;;;;5106133;28;20441;-53
2021/01/11 09:16:59;;;;;;;19.20;8.80;;;-2.70;99.90;;;;;;5090642;28;20485;-53
2021/01/11 09:19:26;;;;;;;17.80;8.23;;;-2.70;99.90;;;;;;5090282;28;20453;-53
2021/01/11 09:22:02;;;;;;;19.63;8.00;;;-2.50;99.90;;;;;;5090525;28;21011;-52
2021/01/11 09:24:30;;;;;;;17.70;7.90;;;-2.50;99.90;;;;;;5090594;28;21008;-53
2021/01/11 09:26:57;;;;;;;18.77;8.73;;;-2.20;99.90;;;;;;5090361;28;20511;-53
2021/01/11 09:29:25;;;;;;;20.20;8.63;;;-2.10;99.90;;;;;;5090178;28;20934;-53
2021/01/11 09:31:51;;;;;;;19.30;7.53;;;-1.90;99.90;;;;;;5090861;28;20470;-53
2021/01/11 09:34:18;;;;;;;15.63;6.57;;;-1.70;99.90;;;;;;5085806;28;20445;-53
2021/01/11 09:36:46;;;;;;;14.40;7.53;;;-1.50;99.90;;;;;;5089655;28;20478;-52
2021/01/11 09:39:17;;;;;;;17.50;6.97;;;-1.50;99.90;;;;;;5090682;28;20449;-52
2021/01/11 09:41:47;;;;;;;14.73;6.90;;;-1.50;99.90;;;;;;5090244;28;20767;-52
2021/01/11 09:44:14;;;;;;;16.87;6.50;;;-1.60;99.90;;;;;;5090398;28;20449;-52
2021/01/11 09:46:46;;;;;;;14.80;6.80;;;-1.60;99.90;;;;;;5089967;28;20442;-52
2021/01/11 09:49:12;;;;;;;17.97;7.40;;;-1.30;99.90;;;;;;5090147;28;20442;-52
2021/01/11 09:51:39;;;;;;;19.03;7.87;;;-1.00;99.90;;;;;;5090068;28;20474;-52
2021/01/11 09:54:07;;;;;;;12.77;7.30;;;-0.70;99.90;;;;;;5090136;28;20451;-52
2021/01/11 09:56:34;;;;;;;19.00;7.90;;;-0.30;99.90;;;;;;5090011;28;20490;-53
2021/01/11 09:59:02;;;;;;;18.47;7.70;;;0.10;99.90;;;;;;5089785;28;21006;-52
2021/01/11 10:01:42;;;;;;;17.70;8.13;;;0.50;99.90;;;;;;5090086;28;20477;-52
2021/01/11 10:04:12;;;;;;;23.80;8.47;;;0.60;99.90;;;;;;5090266;28;20453;-52
2021/01/11 10:06:44;;;;;;;15.27;7.63;;;0.50;99.90;;;;;;5089802;28;20462;-53
2021/01/11 10:09:12;;;;;;;15.53;7.47;;;0.20;99.90;;;;;;5089610;28;20464;-52
2021/01/11 10:11:39;;;;;;;17.00;7.80;;;0.00;99.90;;;;;;5089752;28;20487;-52
2021/01/11 10:14:11;;;;;;;18.90;7.30;;;-0.20;99.90;;;;;;5090157;28;20478;-53
2021/01/11 10:16:40;;;;;;;15.97;7.83;;;-0.60;99.90;;;;;;5089962;28;20449;-52
2021/01/11 10:19:06;;;;;;;22.80;8.80;;;-0.60;99.90;;;;;;5089804;28;20525;-52
2021/01/11 10:21:33;;;;;;;22.77;10.07;;;-0.60;99.90;;;;;;5089780;28;20483;-53
2021/01/11 10:23:59;;;;;;;21.40;8.83;;;-0.30;99.90;;;;;;5090190;28;20493;-53
2021/01/11 10:26:26;;;;;;;20.30;8.00;;;-0.10;99.90;;;;;;5090252;28;20866;-53
2021/01/11 10:28:52;;;;;;;18.80;9.30;;;-0.30;99.90;;;;;;5089426;28;20451;-53
2021/01/11 10:31:20;;;;;;;22.07;9.03;;;0.10;99.90;;;;;;5089743;28;20466;-53
2021/01/11 10:33:47;;;;;;;22.50;10.57;;;0.40;99.90;;;;;;5089708;28;20471;-53
2021/01/11 10:36:14;;;;;;;24.70;10.80;;;0.70;99.90;;;;;;5090037;28;20455;-53
2021/01/11 10:38:41;;;;;;;20.80;10.27;;;0.30;99.90;;;;;;5089504;28;20479;-53
2021/01/11 10:41:08;;;;;;;22.53;9.70;;;0.80;99.90;;;;;;5089052;28;21001;-53
2021/01/11 10:43:35;;;;;;;24.67;10.67;;;1.10;99.90;;;;;;5089912;28;20509;-53
2021/01/11 10:46:02;;;;;;;24.50;10.60;;;1.00;99.90;;;;;;5089785;28;20455;-53
2021/01/11 10:48:30;;;;;;;19.60;11.20;;;0.10;99.90;;;;;;5077402;28;20442;-54
2021/01/11 11:17:53;;;;;;;16.23;7.17;;;-0.10;99.90;;;;;;5073373;28;20833;-53
2021/01/11 11:20:20;;;;;;;14.40;6.43;;;0.20;99.90;;;;;;5073764;28;20452;-53
2021/01/11 11:22:46;;;;;;;11.43;6.13;;;0.40;99.90;;;;;;5072700;28;20916;-53
2021/01/11 11:25:14;;;;;;;13.37;7.53;;;0.20;99.90;;;;;;5072761;28;20464;-53
2021/01/11 11:27:41;;;;;;;14.63;6.40;;;0.10;99.90;;;;;;5075120;28;20460;-53
2021/01/11 11:30:09;;;;;;;14.43;7.50;;;0.20;99.90;;;;;;5074211;28;20452;-53
2021/01/11 11:32:35;;;;;;;13.20;6.70;;;0.30;99.90;;;;;;5072571;28;20487;-53
2021/01/11 11:35:05;;;;;;;12.93;6.70;;;0.30;99.90;;;;;;5072953;28;20454;-53
2021/01/11 11:37:33;;;;;;;15.03;6.97;;;0.40;99.90;;;;;;5092628;28;20551;-53
2021/01/11 11:40:00;;;;;;;27.30;7.47;;;-0.20;99.90;;;;;;5091728;28;20452;-53
2021/01/11 11:42:26;;;;;;;16.20;7.00;;;-0.10;99.90;;;;;;5092350;28;20463;-53
2021/01/11 11:44:53;;;;;;;11.93;6.67;;;0.10;99.90;;;;;;5092924;28;20455;-53
2021/01/11 11:47:19;;;;;;;14.27;6.00;;;0.40;99.90;;;;;;5092065;28;20445;-52
2021/01/11 11:49:46;;;;;;;11.97;6.10;;;0.50;99.90;;;;;;5092147;28;20447;-52
2021/01/11 11:52:16;;;;;;;12.97;6.17;;;0.50;99.90;;;;;;5093722;28;20434;-53
2021/01/11 11:54:42;;;;;;;13.83;6.87;;;0.60;99.90;;;;;;5083074;28;20509;-52
2021/01/11 11:57:09;;;;;;;13.83;6.97;;;0.70;99.90;;;;;;5092019;28;20506;-52
2021/01/11 11:59:36;;;;;;;11.90;6.80;;;0.60;99.90;;;;;;5091460;28;20448;-51
2021/01/11 12:02:02;;;;;;;15.53;6.70;;;0.70;99.90;;;;;;5092242;28;20474;-51
2021/01/11 12:04:29;;;;;;;13.00;6.40;;;0.90;99.90;;;;;;5092589;28;20455;-52
2021/01/11 12:06:56;;;;;;;13.37;7.07;;;0.70;99.90;;;;;;5092261;28;20851;-51
2021/01/11 12:09:23;;;;;;;20.07;8.43;;;0.80;99.90;;;;;;5091433;28;20534;-51
2021/01/11 12:11:50;;;;;;;14.10;7.30;;;0.50;99.90;;;;;;5091523;28;20856;-51
2021/01/11 12:14:17;;;;;;;15.97;8.00;;;0.40;99.90;;;;;;5091794;28;20452;-51
2021/01/11 12:16:48;;;;;;;16.17;7.50;;;0.30;99.90;;;;;;5092256;28;20459;-51
2021/01/11 12:19:18;;;;;;;18.27;7.40;;;0.30;99.90;;;;;;5090554;28;20502;-52
2021/01/11 12:21:45;;;;;;;15.77;7.10;;;0.50;99.90;;;;;;5092221;28;20476;-52
2021/01/11 12:24:12;;;;;;;14.50;7.30;;;0.50;99.90;;;;;;5086647;28;20460;-52
2021/01/11 12:26:42;;;;;;;16.60;6.97;;;0.60;99.90;;;;;;5091589;28;20489;-52
2021/01/11 12:29:12;;;;;;;14.67;6.80;;;0.50;99.90;;;;;;5088062;28;20444;-52
2021/01/11 12:31:39;;;;;;;15.63;7.20;;;0.50;99.90;;;;;;5089524;28;20991;-52
2021/01/11 12:34:08;;;;;;;14.47;7.23;;;0.20;99.90;;;;;;5081650;28;20448;-52
2021/01/11 12:36:37;;;;;;;14.53;7.47;;;0.20;99.90;;;;;;5091136;28;20647;-52
2021/01/11 12:39:10;;;;;;;15.00;7.60;;;0.20;99.90;;;;;;5091694;28;20442;-52
2021/01/11 12:41:37;;;;;;;18.73;7.53;;;0.20;99.90;;;;;;5091435;28;20468;-53
2021/01/11 12:44:07;;;;;;;17.63;7.47;;;-0.10;99.90;;;;;;5091174;28;20449;-52
2021/01/11 12:46:34;;;;;;;19.20;7.57;;;-0.40;99.90;;;;;;5091393;28;20451;-53
2021/01/11 12:49:00;;;;;;;16.73;7.60;;;-0.40;99.90;;;;;;5091412;28;20449;-52
2021/01/11 12:51:27;;;;;;;18.30;8.67;;;-0.40;99.90;;;;;;5091372;28;20527;-53
2021/01/11 12:53:55;;;;;;;24.73;8.37;;;-0.30;99.90;;;;;;5091403;28;20592;-52
2021/01/11 12:56:23;;;;;;;22.07;9.37;;;-0.40;99.90;;;;;;5091091;28;20450;-52
2021/01/11 12:58:51;;;;;;;14.97;7.90;;;-0.30;99.90;;;;;;5091399;28;20981;-52
2021/01/11 13:01:21;;;;;;;18.33;9.40;;;-0.20;99.90;;;;;;5091475;28;20898;-53
2021/01/11 13:03:49;;;;;;;18.37;9.03;;;0.00;99.90;;;;;;5086780;28;20486;-52
2021/01/11 13:06:25;;;;;;;21.47;9.73;;;-0.50;99.90;;;;;;5093663;28;20446;-52
2021/01/11 13:08:52;;;;;;;18.83;8.50;;;-0.70;99.90;;;;;;5091187;28;20447;-52
2021/01/11 13:11:20;;;;;;;20.20;9.70;;;-0.50;99.90;;;;;;5090526;28;20478;-52
2021/01/11 13:13:47;;;;;;;21.87;10.80;;;-0.40;99.90;;;;;;5090803;28;20477;-52
2021/01/11 13:16:23;;;;;;;20.60;10.63;;;-0.40;99.90;;;;;;5090724;28;20454;-52